| time (UTC) | temp C | wind direction | speed KPH | gust KPH | rain 1hr cm | rain 24hr cm | rain mn cm | humidity % | barometer mb |
| 20260906234536 | 15 | 69 | 4.8 | 9.7 | 0.00 | 0.00 | 0.00 | 76 | 1017.2 |
| 20260906234037 | 15 | 103 | 4.8 | 9.7 | 0.00 | 0.00 | 0.00 | 76 | 1017.2 |
| 20260906233533 | 15 | 124 | 6.4 | 11.3 | 0.00 | 0.00 | 0.00 | 76 | 1017.2 |
| 20260906233028 | 15 | 152 | 6.4 | 12.9 | 0.00 | 0.00 | 0.00 | 76 | 1017.2 |
| 20260906231529 | 15 | 134 | 6.4 | 12.9 | 0.00 | 0.00 | 0.00 | 76 | 1017.4 |
| 20260906231034 | 15 | 103 | 6.4 | 12.9 | 0.00 | 0.00 | 0.00 | 76 | 1017.4 |
| 20260906230529 | 15 | 105 | 6.4 | 17.7 | 0.00 | 0.00 | 0.00 | 76 | 1017.4 |
| 20260906230029 | 16 | 100 | 8.0 | 17.7 | 0.00 | 0.00 | 0.00 | 75 | 1017.4 |
| 20260906225529 | 16 | 115 | 8.0 | 16.1 | 0.00 | 0.00 | 0.00 | 74 | 1017.4 |
| 20260906225030 | 16 | 158 | 8.0 | 16.1 | 0.00 | 0.00 | 0.00 | 74 | 1017.3 |
| 20260906224027 | 16 | 123 | 8.0 | 16.1 | 0.00 | 0.00 | 0.00 | 75 | 1017.3 |
| 20260906223531 | 16 | 105 | 6.4 | 16.1 | 0.00 | 0.00 | 0.00 | 75 | 1017.4 |
| 20260906222523 | 16 | 104 | 6.4 | 14.5 | 0.00 | 0.00 | 0.00 | 74 | 1017.4 |
| 20260906221024 | 15 | 135 | 8.0 | 16.1 | 0.00 | 0.00 | 0.00 | 75 | 1017.5 |
| 20260906220024 | 15 | 126 | 6.4 | 14.5 | 0.00 | 0.00 | 0.00 | 77 | 1017.5 |
| 20260906215525 | 15 | 137 | 6.4 | 14.5 | 0.00 | 0.00 | 0.00 | 78 | 1017.3 |
| 20260906215025 | 15 | 121 | 6.4 | 14.5 | 0.00 | 0.00 | 0.00 | 78 | 1017.4 |
| 20260906214525 | 15 | 133 | 6.4 | 14.5 | 0.00 | 0.00 | 0.00 | 79 | 1017.4 |
| 20260906214022 | 15 | 128 | 6.4 | 16.1 | 0.00 | 0.00 | 0.00 | 80 | 1017.4 |
| 20260906213022 | 15 | 133 | 8.0 | 19.3 | 0.00 | 0.00 | 0.00 | 80 | 1017.6 |
| 20260906212527 | 15 | 74 | 4.8 | 12.9 | 0.00 | 0.00 | 0.00 | 83 | 1017.5 |
| 20260906212022 | 15 | 130 | 3.2 | 9.7 | 0.00 | 0.00 | 0.00 | 86 | 1017.4 |
| 20260906211523 | 14 | 68 | 4.8 | 9.7 | 0.00 | 0.00 | 0.00 | 87 | 1017.4 |
| 20260906211022 | 14 | 121 | 4.8 | 11.3 | 0.00 | 0.00 | 0.00 | 88 | 1017.5 |
| 20260906210522 | 13 | 146 | 4.8 | 11.3 | 0.00 | 0.00 | 0.00 | 88 | 1017.6 |
| 20260906210023 | 13 | 149 | 6.4 | 11.3 | 0.00 | 0.00 | 0.00 | 88 | 1017.7 |
| 20260906205523 | 13 | 178 | 4.8 | 11.3 | 0.00 | 0.00 | 0.00 | 88 | 1017.8 |
| 20260906205023 | 13 | 125 | 4.8 | 9.7 | 0.00 | 0.00 | 0.00 | 89 | 1017.8 |
| 20260906204520 | 13 | 129 | 4.8 | 9.7 | 0.00 | 0.00 | 0.00 | 89 | 1017.9 |
| 20260906204020 | 13 | 126 | 3.2 | 9.7 | 0.00 | 0.00 | 0.00 | 90 | 1017.9 |
| 20260906203520 | 13 | 115 | 4.8 | 11.3 | 0.00 | 0.00 | 0.00 | 90 | 1017.9 |
| 20260906203021 | 13 | 141 | 6.4 | 16.1 | 0.00 | 0.00 | 0.00 | 90 | 1018.0 |
| 20260906202020 | 13 | 126 | 11.3 | 20.9 | 0.00 | 0.00 | 0.00 | 89 | 1018.3 |
| 20260906201522 | 13 | 149 | 11.3 | 20.9 | 0.00 | 0.00 | 0.00 | 88 | 1018.4 |
| 20260906201022 | 14 | 121 | 8.0 | 16.1 | 0.00 | 0.00 | 0.00 | 86 | 1018.5 |
| 20260906200521 | 14 | 119 | 4.8 | 12.9 | 0.00 | 0.00 | 0.00 | 83 | 1018.3 |
| 20260906200021 | 14 | 122 | 4.8 | 9.7 | 0.00 | 0.00 | 0.00 | 83 | 1018.3 |
| 20260906195017 | 14 | 119 | 4.8 | 9.7 | 0.00 | 0.00 | 0.00 | 83 | 1018.4 |
| 20260906194515 | 14 | 126 | 4.8 | 9.7 | 0.00 | 0.00 | 0.00 | 83 | 1018.4 |
| 20260906194015 | 14 | 107 | 4.8 | 11.3 | 0.00 | 0.00 | 0.00 | 83 | 1018.4 |
| 20260906193515 | 14 | 127 | 6.4 | 12.9 | 0.00 | 0.00 | 0.00 | 83 | 1018.5 |
| 20260906193015 | 14 | 143 | 6.4 | 12.9 | 0.00 | 0.00 | 0.00 | 82 | 1018.5 |
| 20260906192016 | 14 | 128 | 8.0 | 16.1 | 0.00 | 0.00 | 0.00 | 82 | 1018.6 |
| 20260906191515 | 14 | 122 | 6.4 | 16.1 | 0.00 | 0.00 | 0.00 | 82 | 1018.6 |
| 20260906191017 | 14 | 125 | 4.8 | 11.3 | 0.00 | 0.00 | 0.00 | 82 | 1018.6 |
| 20260906190514 | 14 | 142 | 6.4 | 12.9 | 0.00 | 0.00 | 0.00 | 81 | 1018.5 |
| 20260906190014 | 14 | 119 | 6.4 | 14.5 | 0.00 | 0.00 | 0.00 | 82 | 1018.6 |
| 20260906185513 | 14 | 119 | 6.4 | 14.5 | 0.00 | 0.00 | 0.00 | 81 | 1018.7 |
| 20260906185016 | 14 | 163 | 6.4 | 12.9 | 0.00 | 0.00 | 0.00 | 82 | 1018.8 |
| 20260906184013 | 14 | 147 | 4.8 | 14.5 | 0.00 | 0.00 | 0.00 | 82 | 1018.7 |
| 20260906183513 | 14 | 137 | 4.8 | 11.3 | 0.00 | 0.00 | 0.00 | 81 | 1018.8 |
| 20260906183012 | 14 | 152 | 6.4 | 14.5 | 0.00 | 0.00 | 0.00 | 81 | 1018.9 |
| 20260906182519 | 13 | 150 | 8.0 | 16.1 | 0.00 | 0.00 | 0.00 | 82 | 1018.9 |
| 20260906182014 | 13 | 147 | 8.0 | 16.1 | 0.00 | 0.00 | 0.00 | 81 | 1019.0 |
| 20260906181513 | 14 | 139 | 8.0 | 16.1 | 0.00 | 0.00 | 0.00 | 81 | 1018.9 |
| 20260906181013 | 13 | 159 | 8.0 | 14.5 | 0.00 | 0.00 | 0.00 | 81 | 1019.0 |
| 20260906180513 | 13 | 145 | 8.0 | 16.1 | 0.00 | 0.00 | 0.00 | 82 | 1019.1 |
| 20260906180013 | 13 | 142 | 8.0 | 16.1 | 0.00 | 0.00 | 0.00 | 81 | 1019.2 |
| 20260906175011 | 13 | 130 | 8.0 | 19.3 | 0.00 | 0.00 | 0.00 | 81 | 1019.3 |
| 20260906174010 | 13 | 129 | 8.0 | 16.1 | 0.00 | 0.00 | 0.00 | 81 | 1019.2 |
| 20260906173511 | 13 | 113 | 8.0 | 16.1 | 0.00 | 0.00 | 0.00 | 82 | 1019.1 |
| 20260906173011 | 13 | 184 | 8.0 | 14.5 | 0.00 | 0.00 | 0.00 | 81 | 1019.1 |
| 20260906172511 | 13 | 144 | 8.0 | 17.7 | 0.00 | 0.00 | 0.00 | 81 | 1019.1 |
| 20260906171511 | 13 | 138 | 8.0 | 17.7 | 0.00 | 0.00 | 0.00 | 80 | 1019.2 |
| 20260906170513 | 13 | 175 | 6.4 | 14.5 | 0.00 | 0.00 | 0.00 | 82 | 1019.1 |
| 20260906170008 | 13 | 97 | 6.4 | 14.5 | 0.00 | 0.00 | 0.00 | 82 | 1019.1 |
| 20260906165509 | 13 | 104 | 4.8 | 12.9 | 0.00 | 0.00 | 0.00 | 82 | 1019.0 |
| 20260906165008 | 13 | 110 | 3.2 | 9.7 | 0.00 | 0.00 | 0.00 | 82 | 1019.0 |
| 20260906164509 | 13 | 135 | 4.8 | 8.0 | 0.00 | 0.00 | 0.00 | 82 | 1019.1 |
| 20260906164013 | 13 | 129 | 4.8 | 9.7 | 0.00 | 0.00 | 0.00 | 83 | 1018.9 |
| 20260906162509 | 14 | 93 | 1.6 | 6.4 | 0.00 | 0.00 | 0.00 | 80 | 1019.0 |
| 20260906162008 | 13 | 0 | 1.6 | 6.4 | 0.00 | 0.00 | 0.00 | 80 | 1019.0 |
| 20260906160003 | 13 | 105 | 3.2 | 8.0 | 0.00 | 0.00 | 0.00 | 83 | 1018.9 |
| 20260906155503 | 13 | 108 | 3.2 | 8.0 | 0.00 | 0.00 | 0.00 | 85 | 1018.9 |
| 20260906155003 | 13 | 148 | 1.6 | 6.4 | 0.00 | 0.00 | 0.00 | 86 | 1019.1 |
| 20260906154502 | 12 | 164 | 3.2 | 8.0 | 0.00 | 0.00 | 0.00 | 87 | 1019.0 |
| 20260906153959 | 12 | 148 | 3.2 | 8.0 | 0.00 | 0.00 | 0.00 | 87 | 1019.1 |
| 20260906153458 | 12 | 116 | 4.8 | 11.3 | 0.00 | 0.00 | 0.00 | 88 | 1019.1 |
| 20260906152456 | 12 | 125 | 4.8 | 11.3 | 0.00 | 0.00 | 0.00 | 90 | 1019.1 |
| 20260906151955 | 12 | 141 | 3.2 | 8.0 | 0.00 | 0.00 | 0.00 | 91 | 1019.2 |
| 20260906151452 | 12 | 130 | 3.2 | 8.0 | 0.00 | 0.00 | 0.00 | 93 | 1019.2 |
| 20260906150452 | 12 | 113 | 3.2 | 8.0 | 0.00 | 0.00 | 0.00 | 94 | 1019.4 |
| 20260906145949 | 12 | 178 | 3.2 | 8.0 | 0.00 | 0.00 | 0.00 | 94 | 1019.3 |
| 20260906145453 | 12 | 144 | 1.6 | 6.4 | 0.00 | 0.00 | 0.00 | 94 | 1019.4 |
| 20260906144952 | 12 | 164 | 3.2 | 6.4 | 0.00 | 0.00 | 0.00 | 94 | 1019.5 |
| 20260906144452 | 12 | 113 | 3.2 | 6.4 | 0.00 | 0.00 | 0.00 | 94 | 1019.5 |
| 20260906143455 | 12 | 143 | 1.6 | 4.8 | 0.00 | 0.00 | 0.00 | 94 | 1019.5 |
| 20260906142952 | 12 | 149 | 1.6 | 6.4 | 0.00 | 0.00 | 0.00 | 94 | 1019.7 |
| 20260906142454 | 12 | 153 | 3.2 | 8.0 | 0.00 | 0.00 | 0.00 | 94 | 1019.7 |
| 20260906141939 | 12 | 133 | 3.2 | 8.0 | 0.00 | 0.00 | 0.00 | 94 | 1019.7 |
| 20260906141439 | 12 | 147 | 3.2 | 8.0 | 0.00 | 0.00 | 0.00 | 94 | 1019.7 |
| 20260906140942 | 12 | 131 | 3.2 | 8.0 | 0.00 | 0.00 | 0.00 | 94 | 1019.7 |
| 20260906140441 | 12 | 173 | 3.2 | 9.7 | 0.00 | 0.00 | 0.00 | 94 | 1019.7 |
| 20260906135441 | 12 | 145 | 3.2 | 11.3 | 0.00 | 0.00 | 0.00 | 94 | 1019.8 |
| 20260906134942 | 12 | 152 | 3.2 | 6.4 | 0.00 | 0.00 | 0.00 | 93 | 1019.8 |
| 20260906134442 | 12 | 158 | 3.2 | 8.0 | 0.00 | 0.00 | 0.00 | 93 | 1019.7 |
| 20260906133940 | 12 | 130 | 3.2 | 9.7 | 0.00 | 0.00 | 0.00 | 93 | 1019.7 |
| 20260906133440 | 12 | 118 | 4.8 | 9.7 | 0.00 | 0.00 | 0.00 | 93 | 1019.7 |
| 20260906132940 | 12 | 123 | 4.8 | 9.7 | 0.00 | 0.00 | 0.00 | 93 | 1019.7 |
| 20260906132437 | 12 | 125 | 4.8 | 9.7 | 0.00 | 0.00 | 0.00 | 93 | 1019.8 |
| 20260906131938 | 12 | 142 | 4.8 | 9.7 | 0.00 | 0.00 | 0.00 | 93 | 1019.9 |
| 20260906130938 | 12 | 141 | 4.8 | 9.7 | 0.00 | 0.00 | 0.00 | 92 | 1020.0 |
| 20260906130439 | 12 | 99 | 4.8 | 9.7 | 0.00 | 0.00 | 0.00 | 92 | 1020.1 |
| 20260906125938 | 12 | 121 | 4.8 | 8.0 | 0.00 | 0.00 | 0.00 | 92 | 1020.1 |
| 20260906125438 | 12 | 104 | 3.2 | 8.0 | 0.00 | 0.00 | 0.00 | 92 | 1020.1 |
| 20260906124938 | 12 | 121 | 3.2 | 8.0 | 0.00 | 0.00 | 0.00 | 92 | 1020.2 |
| 20260906124436 | 11 | 142 | 3.2 | 8.0 | 0.00 | 0.00 | 0.00 | 92 | 1020.2 |
| 20260906123937 | 11 | 98 | 3.2 | 8.0 | 0.00 | 0.00 | 0.00 | 92 | 1020.0 |
| 20260906123436 | 11 | 104 | 3.2 | 6.4 | 0.00 | 0.00 | 0.00 | 92 | 1020.1 |
| 20260906121426 | 11 | 135 | 3.2 | 8.0 | 0.00 | 0.00 | 0.00 | 92 | 1020.0 |
| 20260906120926 | 11 | 151 | 3.2 | 8.0 | 0.00 | 0.00 | 0.00 | 92 | 1020.1 |
| 20260906120426 | 11 | 119 | 3.2 | 8.0 | 0.00 | 0.00 | 0.00 | 92 | 1020.0 |
| 20260906115925 | 11 | 146 | 3.2 | 8.0 | 0.00 | 0.00 | 0.00 | 92 | 1019.9 |
| 20260906115427 | 11 | 119 | 3.2 | 6.4 | 0.00 | 0.00 | 0.00 | 92 | 1019.8 |
| 20260906114923 | 11 | 133 | 1.6 | 6.4 | 0.00 | 0.00 | 0.00 | 92 | 1019.9 |
| 20260906114423 | 11 | 116 | 1.6 | 6.4 | 0.00 | 0.00 | 0.00 | 92 | 1019.7 |
| 20260906113923 | 11 | 92 | 1.6 | 6.4 | 0.00 | 0.00 | 0.00 | 92 | 1019.8 |
| 20260906113423 | 11 | 124 | 3.2 | 6.4 | 0.00 | 0.00 | 0.00 | 92 | 1019.8 |
| 20260906111923 | 11 | 125 | 1.6 | 4.8 | 0.00 | 0.00 | 0.00 | 92 | 1020.1 |
| 20260906111424 | 11 | 125 | 1.6 | 6.4 | 0.00 | 0.00 | 0.00 | 92 | 1020.1 |
| 20260906110921 | 11 | 70 | 1.6 | 6.4 | 0.00 | 0.00 | 0.00 | 92 | 1020.2 |
| 20260906110422 | 11 | 117 | 1.6 | 6.4 | 0.00 | 0.00 | 0.00 | 92 | 1020.3 |
| 20260906105921 | 11 | 142 | 1.6 | 6.4 | 0.00 | 0.00 | 0.00 | 92 | 1020.4 |
| 20260906104922 | 11 | 113 | 3.2 | 9.7 | 0.00 | 0.00 | 0.00 | 92 | 1020.4 |
| 20260906104422 | 11 | 121 | 3.2 | 9.7 | 0.00 | 0.00 | 0.00 | 92 | 1020.4 |
| 20260906103417 | 11 | 103 | 3.2 | 8.0 | 0.00 | 0.00 | 0.00 | 91 | 1020.6 |
| 20260906102914 | 11 | 129 | 3.2 | 9.7 | 0.00 | 0.00 | 0.00 | 91 | 1020.7 |
| 20260906102413 | 11 | 124 | 4.8 | 9.7 | 0.00 | 0.00 | 0.00 | 92 | 1020.7 |
| 20260906101913 | 11 | 135 | 3.2 | 9.7 | 0.00 | 0.00 | 0.00 | 92 | 1020.7 |
| 20260906101413 | 11 | 117 | 3.2 | 6.4 | 0.00 | 0.00 | 0.00 | 92 | 1020.7 |
| 20260906100913 | 11 | 90 | 1.6 | 6.4 | 0.00 | 0.00 | 0.00 | 92 | 1020.7 |
| 20260906100414 | 11 | 111 | 3.2 | 6.4 | 0.00 | 0.00 | 0.00 | 92 | 1020.7 |
| 20260906095913 | 11 | 118 | 3.2 | 6.4 | 0.00 | 0.00 | 0.00 | 92 | 1020.8 |
| 20260906095409 | 11 | 124 | 1.6 | 6.4 | 0.00 | 0.00 | 0.00 | 92 | 1020.8 |
| 20260906094909 | 11 | 86 | 1.6 | 4.8 | 0.00 | 0.00 | 0.00 | 92 | 1020.8 |
| 20260906094409 | 11 | 69 | 1.6 | 4.8 | 0.00 | 0.00 | 0.00 | 92 | 1020.7 |
| 20260906093906 | 11 | 56 | 1.6 | 3.2 | 0.00 | 0.00 | 0.00 | 92 | 1020.7 |
| 20260906092859 | 11 | 78 | 3.2 | 8.0 | 0.00 | 0.00 | 0.00 | 92 | 1020.8 |
| 20260906092359 | 11 | 74 | 3.2 | 8.0 | 0.00 | 0.00 | 0.00 | 92 | 1020.8 |
| 20260906091859 | 11 | 108 | 3.2 | 6.4 | 0.00 | 0.00 | 0.00 | 92 | 1020.8 |
| 20260906090901 | 11 | 138 | 1.6 | 4.8 | 0.00 | 0.00 | 0.00 | 92 | 1020.8 |
| 20260906090359 | 11 | 126 | 1.6 | 6.4 | 0.00 | 0.00 | 0.00 | 92 | 1020.9 |
| 20260906085901 | 11 | 160 | 3.2 | 6.4 | 0.00 | 0.00 | 0.00 | 92 | 1021.0 |
| 20260906084856 | 11 | 113 | 3.2 | 6.4 | 0.00 | 0.00 | 0.00 | 92 | 1021.2 |
| 20260906084359 | 11 | 67 | 1.6 | 6.4 | 0.00 | 0.00 | 0.00 | 92 | 1021.3 |
| 20260906083856 | 11 | 123 | 3.2 | 6.4 | 0.00 | 0.00 | 0.00 | 92 | 1021.2 |
| 20260906083357 | 11 | 136 | 3.2 | 6.4 | 0.00 | 0.00 | 0.00 | 91 | 1021.5 |
| 20260906082856 | 11 | 124 | 3.2 | 6.4 | 0.00 | 0.00 | 0.00 | 91 | 1021.6 |
| 20260906082356 | 11 | 88 | 3.2 | 6.4 | 0.00 | 0.00 | 0.00 | 91 | 1021.5 |
| 20260906081856 | 11 | 133 | 3.2 | 4.8 | 0.00 | 0.00 | 0.00 | 91 | 1021.5 |
| 20260906080856 | 11 | 119 | 3.2 | 6.4 | 0.00 | 0.00 | 0.00 | 91 | 1021.6 |
| 20260906080357 | 11 | 124 | 3.2 | 6.4 | 0.00 | 0.00 | 0.00 | 90 | 1021.6 |
| 20260906075856 | 11 | 128 | 3.2 | 8.0 | 0.00 | 0.00 | 0.00 | 90 | 1021.6 |
| 20260906075349 | 11 | 150 | 1.6 | 8.0 | 0.00 | 0.00 | 0.00 | 89 | 1021.6 |
| 20260906074849 | 11 | 129 | 1.6 | 4.8 | 0.00 | 0.00 | 0.00 | 89 | 1021.6 |
| 20260906074346 | 11 | 94 | 1.6 | 4.8 | 0.00 | 0.00 | 0.00 | 89 | 1021.6 |
| 20260906073846 | 11 | 96 | 1.6 | 6.4 | 0.00 | 0.00 | 0.00 | 89 | 1021.6 |
| 20260906073345 | 11 | 128 | 3.2 | 6.4 | 0.00 | 0.00 | 0.00 | 88 | 1021.5 |
| 20260906072846 | 11 | 82 | 3.2 | 6.4 | 0.00 | 0.00 | 0.00 | 88 | 1021.6 |
| 20260906072347 | 11 | 52 | 1.6 | 6.4 | 0.00 | 0.00 | 0.00 | 87 | 1021.6 |
| 20260906071846 | 11 | 62 | 1.6 | 4.8 | 0.00 | 0.00 | 0.00 | 87 | 1021.6 |
| 20260906071344 | 11 | 93 | 3.2 | 8.0 | 0.00 | 0.00 | 0.00 | 87 | 1021.7 |
| 20260906070844 | 11 | 125 | 3.2 | 8.0 | 0.00 | 0.00 | 0.00 | 87 | 1021.7 |
| 20260906070346 | 11 | 77 | 3.2 | 8.0 | 0.00 | 0.00 | 0.00 | 86 | 1021.8 |
| 20260906065842 | 11 | 105 | 3.2 | 6.4 | 0.00 | 0.00 | 0.00 | 86 | 1021.8 |
| 20260906065332 | 11 | 68 | 3.2 | 6.4 | 0.00 | 0.00 | 0.00 | 86 | 1021.8 |
| 20260906064832 | 11 | 86 | 3.2 | 8.0 | 0.00 | 0.00 | 0.00 | 86 | 1021.8 |
| 20260906064332 | 12 | 135 | 3.2 | 8.0 | 0.00 | 0.00 | 0.00 | 86 | 1021.8 |
| 20260906063333 | 12 | 79 | 3.2 | 6.4 | 0.00 | 0.00 | 0.00 | 86 | 1021.8 |
| 20260906062835 | 12 | 127 | 3.2 | 6.4 | 0.00 | 0.00 | 0.00 | 86 | 1021.8 |
| 20260906062332 | 12 | 79 | 3.2 | 6.4 | 0.00 | 0.00 | 0.00 | 86 | 1021.8 |
| 20260906061833 | 12 | 77 | 3.2 | 6.4 | 0.00 | 0.00 | 0.00 | 86 | 1021.8 |
| 20260906061332 | 12 | 104 | 3.2 | 6.4 | 0.00 | 0.00 | 0.00 | 86 | 1021.8 |
| 20260906060833 | 12 | 88 | 3.2 | 6.4 | 0.00 | 0.00 | 0.00 | 86 | 1021.8 |
| 20260906060329 | 12 | 57 | 3.2 | 6.4 | 0.00 | 0.00 | 0.00 | 86 | 1021.7 |
| 20260906055831 | 12 | 67 | 3.2 | 6.4 | 0.00 | 0.00 | 0.00 | 86 | 1021.8 |
| 20260906055328 | 12 | 78 | 3.2 | 8.0 | 0.00 | 0.00 | 0.00 | 86 | 1021.8 |
| 20260906054829 | 12 | 121 | 3.2 | 8.0 | 0.00 | 0.00 | 0.00 | 86 | 1021.8 |
| 20260906054329 | 12 | 71 | 3.2 | 6.4 | 0.00 | 0.00 | 0.00 | 86 | 1021.9 |
| 20260906053829 | 12 | 66 | 1.6 | 6.4 | 0.00 | 0.00 | 0.00 | 86 | 1021.9 |
| 20260906053329 | 12 | 74 | 1.6 | 8.0 | 0.00 | 0.00 | 0.00 | 86 | 1021.9 |
| 20260906052830 | 12 | 51 | 3.2 | 8.0 | 0.00 | 0.00 | 0.00 | 86 | 1021.9 |
| 20260906052329 | 12 | 71 | 3.2 | 6.4 | 0.00 | 0.00 | 0.00 | 86 | 1021.9 |
| 20260906051329 | 12 | 55 | 4.8 | 11.3 | 0.00 | 0.00 | 0.00 | 85 | 1021.9 |
| 20260906050829 | 12 | 75 | 4.8 | 11.3 | 0.00 | 0.00 | 0.00 | 85 | 1021.8 |
| 20260906050329 | 12 | 54 | 3.2 | 9.7 | 0.00 | 0.00 | 0.00 | 85 | 1021.8 |
| 20260906045833 | 12 | 133 | 3.2 | 9.7 | 0.00 | 0.00 | 0.00 | 84 | 1021.8 |
| 20260906045329 | 12 | 44 | 3.2 | 9.7 | 0.00 | 0.00 | 0.00 | 84 | 1021.8 |
| 20260906044829 | 12 | 83 | 3.2 | 8.0 | 0.00 | 0.00 | 0.00 | 84 | 1021.8 |
| 20260906043829 | 12 | 20 | 3.2 | 9.7 | 0.00 | 0.00 | 0.00 | 84 | 1021.7 |
| 20260906043328 | 12 | 69 | 3.2 | 9.7 | 0.00 | 0.00 | 0.00 | 83 | 1021.7 |
| 20260906042828 | 12 | 47 | 4.8 | 9.7 | 0.00 | 0.00 | 0.00 | 83 | 1021.6 |
| 20260906041824 | 12 | 4 | 3.2 | 9.7 | 0.00 | 0.00 | 0.00 | 83 | 1021.5 |
| 20260906041325 | 12 | 73 | 3.2 | 8.0 | 0.00 | 0.00 | 0.00 | 83 | 1021.5 |
| 20260906040825 | 12 | 64 | 3.2 | 8.0 | 0.00 | 0.00 | 0.00 | 83 | 1021.6 |
| 20260906035829 | 12 | 51 | 3.2 | 8.0 | 0.00 | 0.00 | 0.00 | 82 | 1021.7 |
| 20260906034825 | 12 | 45 | 3.2 | 8.0 | 0.00 | 0.00 | 0.00 | 82 | 1021.7 |
| 20260906034325 | 12 | 42 | 1.6 | 8.0 | 0.00 | 0.00 | 0.00 | 82 | 1021.7 |
| 20260906033325 | 12 | 73 | 3.2 | 8.0 | 0.00 | 0.00 | 0.00 | 82 | 1021.7 |
| 20260906032826 | 12 | 80 | 3.2 | 8.0 | 0.00 | 0.00 | 0.00 | 82 | 1021.7 |
| 20260906032324 | 12 | 53 | 3.2 | 9.7 | 0.00 | 0.00 | 0.00 | 82 | 1021.7 |
| 20260906031823 | 12 | 62 | 3.2 | 9.7 | 0.00 | 0.00 | 0.00 | 82 | 1021.7 |
| 20260906031323 | 12 | 93 | 3.2 | 8.0 | 0.00 | 0.00 | 0.00 | 81 | 1021.7 |
| 20260906030320 | 12 | 59 | 3.2 | 9.7 | 0.00 | 0.00 | 0.00 | 81 | 1021.7 |
| 20260906025822 | 12 | 38 | 3.2 | 8.0 | 0.00 | 0.00 | 0.00 | 81 | 1021.8 |
| 20260906025321 | 12 | 32 | 3.2 | 11.3 | 0.00 | 0.00 | 0.00 | 81 | 1021.8 |
| 20260906024821 | 12 | 69 | 3.2 | 11.3 | 0.00 | 0.00 | 0.00 | 81 | 1021.8 |
| 20260906024321 | 12 | 61 | 3.2 | 8.0 | 0.00 | 0.00 | 0.00 | 81 | 1021.8 |
| 20260906023821 | 12 | 61 | 3.2 | 8.0 | 0.00 | 0.00 | 0.00 | 80 | 1021.8 |
| 20260906023317 | 12 | 62 | 3.2 | 8.0 | 0.00 | 0.00 | 0.00 | 80 | 1021.8 |
| 20260906022817 | 12 | 57 | 3.2 | 6.4 | 0.00 | 0.00 | 0.00 | 80 | 1021.7 |
| 20260906022317 | 12 | 42 | 3.2 | 6.4 | 0.00 | 0.00 | 0.00 | 80 | 1021.7 |
| 20260906021316 | 12 | 75 | 3.2 | 9.7 | 0.00 | 0.00 | 0.00 | 80 | 1021.7 |
| 20260906020815 | 12 | 98 | 4.8 | 11.3 | 0.00 | 0.00 | 0.00 | 80 | 1021.7 |
| 20260906020315 | 12 | 101 | 4.8 | 11.3 | 0.00 | 0.00 | 0.00 | 80 | 1021.5 |
| 20260906015816 | 12 | 51 | 4.8 | 11.3 | 0.00 | 0.00 | 0.00 | 79 | 1021.5 |
| 20260906014314 | 12 | 53 | 3.2 | 9.7 | 0.00 | 0.00 | 0.00 | 79 | 1021.5 |
| 20260906013813 | 12 | 93 | 3.2 | 9.7 | 0.00 | 0.00 | 0.00 | 79 | 1021.5 |
| 20260906012309 | 12 | 65 | 3.2 | 9.7 | 0.00 | 0.00 | 0.00 | 79 | 1021.4 |
| 20260906011810 | 13 | 342 | 3.2 | 8.0 | 0.00 | 0.00 | 0.00 | 78 | 1021.4 |
| 20260906011308 | 13 | 36 | 3.2 | 8.0 | 0.00 | 0.00 | 0.00 | 78 | 1021.4 |
| 20260906010808 | 13 | 55 | 3.2 | 8.0 | 0.00 | 0.00 | 0.00 | 78 | 1021.4 |
| 20260906010308 | 13 | 72 | 3.2 | 6.4 | 0.00 | 0.00 | 0.00 | 78 | 1021.4 |
| 20260906005809 | 13 | 51 | 3.2 | 6.4 | 0.00 | 0.00 | 0.00 | 77 | 1021.4 |
| 20260906005308 | 13 | 33 | 1.6 | 4.8 | 0.00 | 0.00 | 0.00 | 77 | 1021.4 |
| 20260906004811 | 13 | 347 | 3.2 | 6.4 | 0.00 | 0.00 | 0.00 | 77 | 1021.3 |
| 20260906004308 | 13 | 31 | 3.2 | 6.4 | 0.00 | 0.00 | 0.00 | 78 | 1021.4 |
| 20260906003807 | 13 | 14 | 3.2 | 8.0 | 0.00 | 0.00 | 0.00 | 78 | 1021.4 |
| 20260906003309 | 13 | 49 | 3.2 | 8.0 | 0.00 | 0.00 | 0.00 | 78 | 1021.4 |
| 20260906002809 | 13 | 348 | 3.2 | 6.4 | 0.00 | 0.00 | 0.00 | 78 | 1021.4 |
| 20260906001809 | 13 | 43 | 3.2 | 6.4 | 0.00 | 0.00 | 0.00 | 78 | 1021.4 |
| 20260906001310 | 13 | 330 | 3.2 | 6.4 | 0.00 | 0.00 | 0.00 | 78 | 1021.4 |
| 20260906000811 | 13 | 31 | 3.2 | 8.0 | 0.00 | 0.00 | 0.00 | 78 | 1021.4 |
| 20260906000311 | 13 | 36 | 3.2 | 8.0 | 0.00 | 0.00 | 0.00 | 77 | 1021.4 |
| 20260905235809 | 13 | 302 | 1.6 | 6.4 | 0.00 | 0.00 | 0.00 | 77 | 1021.3 |
| 20260905235311 | 13 | 27 | 3.2 | 6.4 | 0.00 | 0.00 | 0.00 | 77 | 1021.3 |